Terminal Aerodrome Forecast
Issued by NWS

Home | Current Version | Previous Version | Text Only | Print | Product List | Glossary On
Versions: 1 2 3 4 5 6 7 8 9 10 11 12 13 14 15
000
FTUS45 KVEF 240524
TAFEED
TAF
KEED 240524Z 2406/2506 25007KT P6SM FEW140 SCT250
     FM241200 VRB05KT P6SM SCT250
     FM241800 19007KT P6SM SKC
     FM250300 24008KT P6SM SKC=

USA.gov is the U.S. government's official web portal to all federal, state and local government web resources and services.